LPPTLPMA

Guest
Details From LPPT - Lisboa
To LPMA - Madeira
Flight Number -
Tags decoded
Created
Modified
Stats Distance 524 nm / 971 km
Max Altitude 0 ft / 0 m
Waypoints 6
Social Downloads 4
Likes 0
Share VATSIM

Download

Looking for another format? Having issues loading an existing format? Contact us
Advertisement - Login to hide

Notes

Requested: LPPT GANSU NARTA ROLAR LIDRO LPMA

Route

LPPT GANSU NARTA ROLAR LIDRO LPMA

ID Type Via Altitude Latitude Longitude Leg Dist Tot Dist Heading (true) Name
O LPPT APT - 0 ft / 0 m 38.77856˚ -9.13515˚ - 0 nm - Lisboa
GANSU FIX - 0 ft / 0 m 38.00000˚ -9.81750˚ 56 nm 56 nm 215° / 214° -
NARTA FIX - 0 ft / 0 m 36.05639˚ -12.55806˚ 175 nm 232 nm 229° / 228° -
ROLAR FIX - 0 ft / 0 m 34.21139˚ -15.20583˚ 170 nm 403 nm 230° / 229° -
LIDRO FIX - 0 ft / 0 m 33.66750˚ -15.94972˚ 49 nm 452 nm 229° / 228° -
O LPMA APT - 0 ft / 0 m 32.69770˚ -16.77445˚ 71 nm 524 nm 216° / 215° Madeira

Altitude Profile

Advertisement - Login to hide

Weather


0- 5 10 15 20 25 30 35+ Temperature / ° C

Clouds and Precipitation
Forecast for 2018-05-26 06:00 UTC. Updated 3 hours ago

Ground ~20,000 ft ~40,000 ft Winds

LPPT

Details ICAO LPPT (LIS)
Name Lisboa
Region Portugal
Timezone Europe/Lisbon (UTC+1.0)
Stats Elevation 374 ft / 114 m (AMSL)
Location 38.778559° -9.135146°
Runways 2
Magnetic Variation 2.309° W

METAR

LPPT 260830Z VRB03KT 8000 FEW008 SCT012 16/14 Q1013

Decode

TAF

TAF TAF LPPT 260500Z 2606/2712 VRB03KT 9999 FEW012 PROB30 TEMPO 2606/2608 BKN008 BECMG 2608/2610 SCT018 BECMG 2612/2614 21008KT SCT030 BECMG 2615/2617 31012KT BECMG 2619/2621 34005KT FEW015 TEMPO 2702/2707 BKN010 BECMG 2707/2709 34010KT SCT020

Decode

Departure Runways

ID Width Length Bearing (true) Bearing (mag) Surface Threshold Offset Overrun Length
03 148 ft / 45 m 12,518 ft / 3,815 m 22.70° 25.01° Asphalt 296 ft / 90 m 0 ft / 0 m
17 148 ft / 45 m 7,922 ft / 2,415 m 168.38° 170.69° Asphalt 0 ft / 0 m 0 ft / 0 m
21 148 ft / 45 m 12,518 ft / 3,815 m 202.72° 205.03° Asphalt 1,969 ft / 600 m 0 ft / 0 m
35 148 ft / 45 m 7,922 ft / 2,415 m 348.38° 350.69° Asphalt 492 ft / 150 m 0 ft / 0 m

LPMA

Details ICAO LPMA (FNC)
Name Madeira
Region Portugal
Timezone Atlantic/Madeira (UTC+1.0)
Stats Elevation 192 ft / 59 m (AMSL)
Location 32.697704° -16.774449°
Runways 1
Magnetic Variation 4.927° W

METAR

LPMA 260830Z 01012KT 330V040 9999 SCT016 BKN030 17/10 Q1019

Decode

TAF

TAF LPMA 260500Z 2606/2706 36012KT 9999 SCT016 SCT030 TEMPO 2606/2706 BKN015 PROB30 TEMPO 2609/2618 36015G25KT

Decode

Destination Runways

ID Width Length Bearing (true) Bearing (mag) Surface Threshold Offset Overrun Length
05 141 ft / 43 m 8,683 ft / 2,647 m 42.98° 47.91° Asphalt 472 ft / 144 m 0 ft / 0 m
23 141 ft / 43 m 8,683 ft / 2,647 m 222.99° 227.92° Asphalt 466 ft / 142 m 0 ft / 0 m

Popular Alternatives